Time;durP1;ratioP1;P1;durP2;ratioP2;P2;SDS_P1;SDS_P2;PMS_P1;PMS_P2;Temp;Humidity;BMP_temperature;BMP_pressure;BME280_temperature;BME280_humidity;BME280_pressure;Samples;Min_cycle;Max_cycle;Signal;HPM_P1;HPM_P2
2021/06/20 00:01:41;;;;;;;7.97;6.68;;;24.60;67.40;;;;;;5052914;28;20102;-89
2021/06/20 00:04:07;;;;;;;10.60;6.20;;;24.60;67.40;;;;;;5050512;28;20108;-88
2021/06/20 00:06:35;;;;;;;8.63;6.00;;;24.60;67.30;;;;;;5051789;28;20079;-88
2021/06/20 00:09:07;;;;;;;7.28;5.78;;;24.60;66.90;;;;;;5031319;28;20060;-88
2021/06/20 00:11:34;;;;;;;12.13;6.88;;;24.60;66.60;;;;;;5014677;28;20035;-88
2021/06/20 00:14:00;;;;;;;7.10;5.28;;;24.60;66.50;;;;;;5049140;28;20041;-88
2021/06/20 00:16:25;;;;;;;7.22;5.68;;;24.60;66.20;;;;;;5034949;28;20031;-88
2021/06/20 00:18:52;;;;;;;9.25;6.30;;;24.60;66.20;;;;;;5033834;28;20086;-89
2021/06/20 00:21:19;;;;;;;8.07;5.97;;;24.60;66.20;;;;;;5033220;28;20028;-89
2021/06/20 00:23:46;;;;;;;8.30;5.55;;;24.60;65.90;;;;;;5034328;28;20028;-88
2021/06/20 00:26:11;;;;;;;10.20;5.60;;;24.70;65.60;;;;;;5032667;28;20033;-88
2021/06/20 00:28:37;;;;;;;14.43;9.88;;;24.70;65.30;;;;;;5034016;28;20036;-88
2021/06/20 00:31:03;;;;;;;9.20;6.20;;;24.70;65.10;;;;;;5033225;28;20106;-89
2021/06/20 00:33:28;;;;;;;11.93;7.22;;;24.70;65.20;;;;;;5051633;28;20112;-88
2021/06/20 00:35:55;;;;;;;8.80;6.68;;;24.60;65.50;;;;;;5032556;28;20041;-90
2021/06/20 00:38:21;;;;;;;10.25;6.53;;;24.60;65.90;;;;;;5033033;28;20473;-88
2021/06/20 00:40:47;;;;;;;7.28;6.32;;;24.60;66.10;;;;;;5033565;28;20047;-88
2021/06/20 00:43:12;;;;;;;10.25;8.10;;;24.60;66.30;;;;;;5052114;28;20489;-88
2021/06/20 00:45:39;;;;;;;10.05;7.88;;;24.60;66.50;;;;;;5033330;28;20055;-88
2021/06/20 00:48:05;;;;;;;13.65;7.07;;;24.60;66.60;;;;;;5032492;28;20051;-87
2021/06/20 00:50:31;;;;;;;8.20;6.85;;;24.60;66.50;;;;;;5032905;28;20055;-88
2021/06/20 00:52:59;;;;;;;9.73;7.03;;;24.50;66.40;;;;;;5051723;28;20025;-87
2021/06/20 00:55:29;;;;;;;11.93;6.43;;;24.50;66.70;;;;;;5032625;28;20025;-89
2021/06/20 00:57:59;;;;;;;10.98;6.22;;;24.50;66.60;;;;;;5033989;28;20025;-89
2021/06/20 01:00:25;;;;;;;9.25;6.45;;;24.50;66.40;;;;;;5033781;28;20029;-88
2021/06/20 01:02:51;;;;;;;9.20;6.80;;;24.50;66.50;;;;;;5032947;28;20036;-88
2021/06/20 01:05:16;;;;;;;13.10;7.00;;;24.50;66.60;;;;;;5032661;28;20036;-88
2021/06/20 01:07:43;;;;;;;12.43;6.93;;;24.50;66.50;;;;;;5032873;28;20160;-88
2021/06/20 01:10:10;;;;;;;6.88;6.15;;;24.50;66.50;;;;;;5033866;28;20032;-88
2021/06/20 01:12:37;;;;;;;8.95;6.93;;;24.50;66.50;;;;;;5033402;28;20622;-88
2021/06/20 01:15:08;;;;;;;7.15;5.75;;;24.50;66.50;;;;;;5033470;28;20087;-88
2021/06/20 01:17:34;;;;;;;11.75;7.43;;;24.50;66.50;;;;;;5036327;28;20051;-87
2021/06/20 01:20:00;;;;;;;11.30;6.22;;;24.50;66.50;;;;;;5037086;28;20083;-88
2021/06/20 01:22:31;;;;;;;8.70;6.88;;;24.50;66.10;;;;;;5045569;28;20037;-89
2021/06/20 01:24:59;;;;;;;8.82;6.05;;;24.60;66.00;;;;;;5054529;28;20079;-88
2021/06/20 01:27:29;;;;;;;8.60;5.68;;;24.60;65.90;;;;;;5036570;28;20033;-88
2021/06/20 01:29:55;;;;;;;12.68;6.68;;;24.60;65.50;;;;;;5034749;28;20093;-88
2021/06/20 01:32:21;;;;;;;7.85;5.97;;;24.60;65.40;;;;;;5053757;28;20497;-88
2021/06/20 01:34:47;;;;;;;9.00;6.10;;;24.60;65.30;;;;;;5035966;28;20029;-89
2021/06/20 01:37:17;;;;;;;8.77;6.35;;;24.60;65.10;;;;;;5037037;28;20508;-88
2021/06/20 01:39:44;;;;;;;9.45;6.38;;;24.70;65.40;;;;;;5036469;28;20125;-88
2021/06/20 01:42:13;;;;;;;12.02;6.18;;;24.70;65.40;;;;;;5037593;28;20035;-88
2021/06/20 01:44:51;;;;;;;10.50;6.72;;;24.70;65.10;;;;;;5036596;28;20040;-88
2021/06/20 01:47:18;;;;;;;8.77;5.97;;;24.70;65.00;;;;;;5036660;28;20040;-88
2021/06/20 01:49:44;;;;;;;11.45;6.95;;;24.70;64.90;;;;;;5032929;28;20035;-88
2021/06/20 01:52:10;;;;;;;6.90;6.20;;;24.60;64.90;;;;;;5047645;28;20033;-88
2021/06/20 01:54:49;;;;;;;9.18;6.40;;;24.60;65.00;;;;;;5052723;28;20032;-88
2021/06/20 01:57:15;;;;;;;8.13;6.43;;;24.60;65.00;;;;;;5036481;28;20033;-88
2021/06/20 01:59:40;;;;;;;7.10;6.07;;;24.60;65.10;;;;;;5037764;28;20296;-88
2021/06/20 02:02:06;;;;;;;10.88;6.35;;;24.60;65.10;;;;;;5034085;28;20114;-88
2021/06/20 02:04:31;;;;;;;9.30;6.18;;;24.60;65.30;;;;;;5034363;28;20056;-88
2021/06/20 02:06:57;;;;;;;9.30;6.07;;;24.60;65.30;;;;;;5053220;28;20040;-88
2021/06/20 02:09:22;;;;;;;11.35;7.07;;;24.50;65.30;;;;;;5036316;28;20040;-88
2021/06/20 02:11:48;;;;;;;9.93;6.97;;;24.50;65.30;;;;;;5054637;28;20058;-88
2021/06/20 02:14:16;;;;;;;8.90;5.70;;;24.40;65.50;;;;;;5053835;28;20039;-89
2021/06/20 02:16:41;;;;;;;11.45;6.10;;;24.40;65.60;;;;;;5036271;28;20029;-88
2021/06/20 02:19:07;;;;;;;9.05;6.25;;;24.40;65.50;;;;;;5035329;28;20159;-88
2021/06/20 02:21:32;;;;;;;10.32;6.50;;;24.40;65.40;;;;;;5041277;28;20064;-88
2021/06/20 02:23:58;;;;;;;9.70;5.78;;;24.40;65.10;;;;;;5035029;28;20413;-88
2021/06/20 02:26:24;;;;;;;7.65;5.47;;;24.40;65.00;;;;;;5054007;28;20024;-89
2021/06/20 02:28:49;;;;;;;7.85;5.78;;;24.40;65.00;;;;;;5031144;28;20450;-89
2021/06/20 02:31:15;;;;;;;13.52;6.45;;;24.30;64.70;;;;;;5035572;28;20024;-88
2021/06/20 02:33:40;;;;;;;11.38;5.50;;;24.40;64.80;;;;;;5034958;28;20489;-89
2021/06/20 02:36:06;;;;;;;12.40;5.10;;;24.40;64.50;;;;;;5017301;28;20370;-87
2021/06/20 02:38:32;;;;;;;12.77;5.32;;;24.40;64.30;;;;;;5033646;28;20048;-88
2021/06/20 02:40:57;;;;;;;14.43;5.65;;;24.40;64.30;;;;;;5035709;28;20497;-89
2021/06/20 02:43:23;;;;;;;13.15;5.78;;;24.40;64.50;;;;;;5054240;28;20025;-88
2021/06/20 02:45:48;;;;;;;12.93;5.35;;;24.40;64.20;;;;;;5035012;28;20477;-88
2021/06/20 02:48:14;;;;;;;12.50;5.43;;;24.40;64.00;;;;;;5053417;28;20025;-89
2021/06/20 02:50:40;;;;;;;19.08;5.57;;;24.40;63.90;;;;;;5045884;28;20352;-89
2021/06/20 02:53:05;;;;;;;14.02;5.53;;;24.40;64.30;;;;;;5035107;28;20025;-88
2021/06/20 02:55:31;;;;;;;11.85;5.22;;;24.40;63.70;;;;;;5034676;28;20029;-88
2021/06/20 02:57:56;;;;;;;12.85;5.75;;;24.50;63.60;;;;;;5035290;28;20037;-88
2021/06/20 03:00:22;;;;;;;17.95;6.32;;;24.50;63.60;;;;;;5053695;28;20025;-88
2021/06/20 03:02:48;;;;;;;11.93;5.65;;;24.50;63.60;;;;;;5052853;28;20469;-88
2021/06/20 03:05:13;;;;;;;21.23;5.55;;;24.40;63.60;;;;;;5050227;28;20481;-88
2021/06/20 03:07:39;;;;;;;13.80;5.57;;;24.40;63.60;;;;;;5034108;28;20018;-88
2021/06/20 03:10:06;;;;;;;18.40;5.72;;;24.40;63.60;;;;;;5035560;28;20485;-89
2021/06/20 03:12:32;;;;;;;20.50;6.07;;;24.40;63.70;;;;;;5036392;28;20017;-87
2021/06/20 03:14:58;;;;;;;18.38;5.65;;;24.40;63.80;;;;;;5034581;28;20082;-88
2021/06/20 03:17:23;;;;;;;19.42;5.55;;;24.50;63.90;;;;;;5034516;28;20485;-87
2021/06/20 03:19:50;;;;;;;17.88;5.60;;;24.50;64.00;;;;;;5033450;28;20040;-89
2021/06/20 03:22:16;;;;;;;22.25;6.07;;;24.50;64.20;;;;;;5034848;28;20025;-88
2021/06/20 03:24:48;;;;;;;17.50;6.10;;;24.60;64.30;;;;;;5052318;28;20100;-88
2021/06/20 03:27:15;;;;;;;29.90;6.85;;;24.60;64.80;;;;;;5052621;28;20017;-89
2021/06/20 03:29:40;;;;;;;26.85;6.93;;;24.50;65.10;;;;;;5034234;28;20021;-89
2021/06/20 03:32:07;;;;;;;26.90;6.30;;;24.50;65.50;;;;;;5031453;28;20028;-89
2021/06/20 03:34:33;;;;;;;24.83;5.93;;;24.50;66.00;;;;;;5033973;28;20429;-88
2021/06/20 03:37:00;;;;;;;21.85;6.18;;;24.50;66.30;;;;;;5052381;28;20029;-88
2021/06/20 03:39:26;;;;;;;24.75;5.78;;;24.40;66.60;;;;;;5033867;28;20108;-89
2021/06/20 03:41:51;;;;;;;19.58;6.20;;;24.40;66.70;;;;;;5035356;28;20060;-89
2021/06/20 03:44:17;;;;;;;26.23;5.75;;;24.40;66.90;;;;;;5051988;28;20464;-88
2021/06/20 03:46:42;;;;;;;23.98;5.47;;;24.40;67.10;;;;;;5035417;28;20114;-89
2021/06/20 03:49:08;;;;;;;18.85;4.88;;;24.40;67.20;;;;;;5048180;28;20029;-88
2021/06/20 03:51:34;;;;;;;24.45;5.60;;;24.40;67.30;;;;;;5034485;28;20033;-89
2021/06/20 03:54:01;;;;;;;20.98;5.85;;;24.40;67.40;;;;;;5051791;28;20227;-89
2021/06/20 03:56:27;;;;;;;25.40;5.72;;;24.30;67.60;;;;;;5035381;28;20497;-88
2021/06/20 03:58:52;;;;;;;26.70;5.50;;;24.30;67.70;;;;;;5034432;28;20029;-88
2021/06/20 04:01:18;;;;;;;24.40;5.90;;;24.30;67.80;;;;;;5034474;28;20092;-88
2021/06/20 04:03:44;;;;;;;32.97;5.72;;;24.30;67.90;;;;;;5051615;28;20040;-89
2021/06/20 04:06:09;;;;;;;21.50;5.10;;;24.30;68.00;;;;;;5033604;28;20072;-88
2021/06/20 04:08:35;;;;;;;22.35;5.82;;;24.30;68.10;;;;;;5052500;28;20041;-88
2021/06/20 04:11:00;;;;;;;19.17;5.55;;;24.30;68.20;;;;;;5035121;28;20017;-89
2021/06/20 04:13:26;;;;;;;27.58;6.00;;;24.30;68.30;;;;;;5033995;28;20033;-88
2021/06/20 04:15:52;;;;;;;21.38;5.40;;;24.30;68.20;;;;;;5033486;28;20025;-89
2021/06/20 04:18:17;;;;;;;20.25;6.07;;;24.30;68.20;;;;;;5032588;28;20377;-88
2021/06/20 04:20:43;;;;;;;27.98;5.60;;;24.30;68.40;;;;;;5036095;28;20048;-89
2021/06/20 04:23:11;;;;;;;21.15;5.32;;;24.30;68.40;;;;;;5050898;28;20419;-89
2021/06/20 04:25:37;;;;;;;22.90;6.22;;;24.30;68.40;;;;;;5050690;28;20025;-88
2021/06/20 04:28:03;;;;;;;22.17;6.25;;;24.30;68.60;;;;;;5033143;28;20028;-89
2021/06/20 04:30:29;;;;;;;29.63;5.80;;;24.30;68.50;;;;;;5022629;28;20024;-89
2021/06/20 04:32:54;;;;;;;20.27;5.82;;;24.30;68.60;;;;;;5025692;28;20028;-88
2021/06/20 04:35:21;;;;;;;17.58;5.05;;;24.30;68.70;;;;;;5033755;28;20021;-89
2021/06/20 04:37:48;;;;;;;22.77;5.10;;;24.30;68.80;;;;;;5053298;28;20025;-88
2021/06/20 04:40:17;;;;;;;18.92;5.53;;;24.30;68.90;;;;;;5035235;28;20036;-89
2021/06/20 04:42:45;;;;;;;23.65;5.47;;;24.40;68.90;;;;;;5035731;28;20029;-88
2021/06/20 04:45:13;;;;;;;25.45;5.32;;;24.40;68.70;;;;;;5035101;28;20047;-88
2021/06/20 04:47:41;;;;;;;22.70;5.10;;;24.40;68.60;;;;;;5034251;28;20021;-88
2021/06/20 04:50:07;;;;;;;18.10;4.65;;;24.40;68.60;;;;;;5039366;28;20369;-88
2021/06/20 04:52:33;;;;;;;20.70;5.10;;;24.40;68.50;;;;;;5050773;28;20013;-88
2021/06/20 04:54:58;;;;;;;16.38;4.35;;;24.40;68.40;;;;;;5034365;28;20029;-88
2021/06/20 04:57:26;;;;;;;20.02;5.13;;;24.40;68.30;;;;;;5035409;28;20059;-88
2021/06/20 04:59:55;;;;;;;22.05;4.00;;;24.40;68.10;;;;;;5036149;28;20044;-88
2021/06/20 05:02:21;;;;;;;21.95;4.20;;;24.40;67.80;;;;;;5036049;28;20055;-88
2021/06/20 05:04:47;;;;;;;13.40;3.53;;;24.40;67.90;;;;;;5035745;28;20029;-88
2021/06/20 05:07:13;;;;;;;14.10;3.03;;;24.50;67.60;;;;;;5035155;28;20031;-86
2021/06/20 05:09:40;;;;;;;15.73;3.50;;;24.50;66.50;;;;;;5053356;28;20056;-88
2021/06/20 05:12:07;;;;;;;14.68;2.70;;;24.50;66.60;;;;;;5034345;28;20017;-88
2021/06/20 05:14:42;;;;;;;12.18;3.13;;;24.50;66.20;;;;;;5034343;28;20025;-89
2021/06/20 05:17:08;;;;;;;9.65;2.75;;;24.60;66.10;;;;;;5033906;28;20460;-88
2021/06/20 05:19:33;;;;;;;7.28;2.60;;;24.60;65.90;;;;;;5034115;28;20029;-88
2021/06/20 05:21:59;;;;;;;17.60;3.05;;;24.60;65.40;;;;;;5034605;28;20107;-87
2021/06/20 05:24:25;;;;;;;13.63;2.78;;;24.50;65.10;;;;;;5051661;28;20036;-89
2021/06/20 05:26:50;;;;;;;12.60;2.63;;;24.60;65.00;;;;;;5034051;28;20405;-88
2021/06/20 05:29:16;;;;;;;14.15;3.00;;;24.50;65.00;;;;;;5048444;28;20420;-89
2021/06/20 05:31:42;;;;;;;14.95;2.90;;;24.60;65.00;;;;;;5034759;28;20427;-88
2021/06/20 05:34:07;;;;;;;14.65;3.88;;;24.60;64.80;;;;;;5033471;28;20520;-88
2021/06/20 05:36:33;;;;;;;14.60;3.17;;;24.60;64.70;;;;;;5034014;28;20021;-88
2021/06/20 05:38:59;;;;;;;16.45;2.95;;;24.60;64.70;;;;;;5053106;28;20059;-88
2021/06/20 05:41:25;;;;;;;11.60;2.95;;;24.60;64.90;;;;;;5029923;28;20107;-89
2021/06/20 05:43:51;;;;;;;8.55;2.80;;;24.70;65.00;;;;;;5019703;28;20068;-91
2021/06/20 05:46:19;;;;;;;16.23;3.88;;;24.70;65.10;;;;;;5031754;28;20059;-91
2021/06/20 05:48:48;;;;;;;13.52;3.67;;;24.70;65.00;;;;;;5036077;28;20043;-92
2021/06/20 05:51:13;;;;;;;12.70;3.25;;;24.70;65.20;;;;;;5035824;28;20025;-92
2021/06/20 05:53:39;;;;;;;14.88;3.30;;;24.70;65.00;;;;;;5021370;28;20430;-92
2021/06/20 05:56:05;;;;;;;15.93;2.97;;;24.70;65.00;;;;;;5024568;28;20021;-92
2021/06/20 05:58:31;;;;;;;13.70;3.28;;;24.70;65.00;;;;;;5036126;28;20025;-92
2021/06/20 06:00:57;;;;;;;14.55;3.60;;;24.70;65.00;;;;;;5028194;28;20336;-92
2021/06/20 06:03:25;;;;;;;20.77;3.50;;;24.70;65.00;;;;;;5036238;28;20060;-92
2021/06/20 06:05:53;;;;;;;15.15;3.58;;;24.70;65.30;;;;;;5035742;28;20040;-91
2021/06/20 06:08:19;;;;;;;10.45;3.15;;;24.70;65.40;;;;;;5040154;28;20465;-92
2021/06/20 06:10:45;;;;;;;13.18;3.22;;;24.80;65.50;;;;;;5033864;28;20057;-92
2021/06/20 06:13:11;;;;;;;13.73;3.03;;;24.80;65.50;;;;;;5037709;28;20021;-91
2021/06/20 06:15:37;;;;;;;16.50;2.83;;;25.00;65.80;;;;;;5038075;28;20029;-92
2021/06/20 06:18:03;;;;;;;14.60;3.53;;;25.10;65.60;;;;;;5030404;28;20449;-92
2021/06/20 06:20:28;;;;;;;11.63;3.40;;;25.10;65.70;;;;;;5035686;28;20361;-92
2021/06/20 06:22:55;;;;;;;14.60;3.30;;;25.20;65.70;;;;;;5035599;28;20029;-92
2021/06/20 06:25:22;;;;;;;11.57;3.08;;;25.30;65.60;;;;;;5032336;28;20025;-92
2021/06/20 06:27:51;;;;;;;14.55;3.60;;;25.20;65.50;;;;;;5036836;28;20032;-92
2021/06/20 06:30:18;;;;;;;14.23;3.50;;;25.20;65.40;;;;;;5024419;28;20037;-93
2021/06/20 06:36:30;;;;;;;9.23;2.63;;;25.10;65.90;;;;;;5051967;28;20029;-94
2021/06/20 06:39:15;;;;;;;14.48;3.25;;;25.10;66.20;;;;;;5033426;28;20049;-93
2021/06/20 06:42:26;;;;;;;;;;;;;;;;;;;;;
2021/06/20 06:45:01;;;;;;;16.83;3.00;;;25.10;65.70;;;;;;5003130;28;20128;-94
2021/06/20 06:51:14;;;;;;;9.63;2.67;;;25.00;65.80;;;;;;5038066;28;20072;-95
2021/06/20 06:57:15;;;;;;;6.75;2.53;;;25.30;66.20;;;;;;5038925;28;20032;-94
2021/06/20 07:03:04;;;;;;;7.38;2.10;;;25.40;65.10;;;;;;5022097;28;20033;-95
2021/06/20 07:05:46;;;;;;;9.63;2.40;;;25.30;64.80;;;;;;5036135;28;20041;-94
2021/06/20 07:08:12;;;;;;;7.22;2.00;;;25.20;64.70;;;;;;5029129;28;20032;-94
2021/06/20 07:10:43;;;;;;;9.50;1.92;;;25.10;64.50;;;;;;5033732;28;20093;-94
2021/06/20 07:13:15;;;;;;;5.30;2.08;;;25.10;64.60;;;;;;5022516;28;20025;-93
2021/06/20 07:16:07;;;;;;;11.10;2.40;;;25.00;65.00;;;;;;5039010;28;20053;-93
2021/06/20 07:18:57;;;;;;;;;;;;;;;;;;;;;
2021/06/20 07:21:23;;;;;;;6.72;2.08;;;25.00;64.70;;;;;;5056969;28;20116;-94
2021/06/20 07:30:28;;;;;;;10.75;2.22;;;24.70;64.80;;;;;;5036426;28;20037;-94
2021/06/20 07:33:23;;;;;;;6.18;2.17;;;24.70;64.80;;;;;;5036701;28;20124;-93
2021/06/20 07:35:58;;;;;;;10.63;2.28;;;24.80;64.90;;;;;;5031601;28;20036;-95
2021/06/20 07:38:50;;;;;;;9.35;2.38;;;24.80;64.50;;;;;;5038586;28;20025;-94
2021/06/20 07:41:56;;;;;;;8.38;2.83;;;24.80;65.20;;;;;;5059394;28;20028;-93
2021/06/20 07:47:52;;;;;;;5.18;1.95;;;24.60;64.80;;;;;;5033664;28;20040;-93
2021/06/20 07:50:43;;;;;;;6.68;2.00;;;24.50;65.10;;;;;;5051669;28;20041;-92
2021/06/20 07:53:48;;;;;;;;;;;;;;;;;;;;;
2021/06/20 07:56:27;;;;;;;7.05;1.75;;;24.50;65.00;;;;;;5054456;28;20104;-93
2021/06/20 07:59:57;;;;;;;12.50;2.60;;;24.40;65.40;;;;;;5024476;28;20504;-94
2021/06/20 08:09:01;;;;;;;9.00;2.00;;;24.30;65.50;;;;;;5051002;28;20025;-94
2021/06/20 08:11:37;;;;;;;6.40;2.08;;;24.30;65.40;;;;;;5034428;28;20033;-94
2021/06/20 08:20:40;;;;;;;10.32;2.75;;;24.40;65.50;;;;;;5072534;28;20027;-95
2021/06/20 08:23:49;;;;;;;6.50;2.45;;;24.40;65.60;;;;;;5050760;28;20025;-92
2021/06/20 08:29:56;;;;;;;9.18;2.83;;;24.40;66.10;;;;;;5067272;28;20048;-93
2021/06/20 08:32:46;;;;;;;10.13;2.45;;;24.50;66.70;;;;;;5067228;28;20024;-93
2021/06/20 08:35:13;;;;;;;5.82;2.25;;;24.60;67.20;;;;;;5040191;22;20045;-68
2021/06/20 08:37:38;;;;;;;6.97;2.33;;;24.60;67.50;;;;;;5027859;28;20071;-68
2021/06/20 08:40:06;;;;;;;6.65;2.65;;;24.60;67.50;;;;;;5028831;28;20413;-68
2021/06/20 08:42:32;;;;;;;8.18;2.13;;;24.70;67.50;;;;;;5020520;28;20152;-69
2021/06/20 08:44:57;;;;;;;9.52;2.47;;;24.70;67.50;;;;;;5006026;28;20116;-69
2021/06/20 08:47:23;;;;;;;6.55;2.10;;;24.70;67.60;;;;;;5025227;28;20105;-69
2021/06/20 08:49:49;;;;;;;6.65;2.80;;;24.80;67.50;;;;;;5008321;28;20030;-69
2021/06/20 08:52:15;;;;;;;4.53;2.20;;;24.80;67.50;;;;;;5016610;28;20021;-68
2021/06/20 08:55:00;;;;;;;12.90;2.67;;;24.80;67.40;;;;;;5011734;28;20022;-68
2021/06/20 08:57:30;;;;;;;9.25;2.70;;;24.80;67.40;;;;;;5023410;28;20018;-70
2021/06/20 08:59:55;;;;;;;7.35;2.20;;;24.90;67.60;;;;;;5028198;28;20079;-69
2021/06/20 09:02:28;;;;;;;9.93;2.42;;;25.00;67.50;;;;;;5021395;28;20106;-68
2021/06/20 09:04:56;;;;;;;9.27;2.53;;;25.00;67.00;;;;;;5029949;28;20036;-68
2021/06/20 09:07:40;;;;;;;4.85;2.10;;;25.10;67.00;;;;;;5029570;28;20025;-68
2021/06/20 09:10:12;;;;;;;5.35;2.22;;;25.10;66.30;;;;;;5019450;28;20033;-70
2021/06/20 09:12:41;;;;;;;;;;;25.20;66.10;;;;;;5015723;28;20513;-68
2021/06/20 09:15:07;;;;;;;13.88;2.20;;;25.20;65.80;;;;;;5019962;28;19912;-70
2021/06/20 09:17:33;;;;;;;10.18;2.42;;;25.40;65.60;;;;;;5025910;28;20026;-69
2021/06/20 09:20:00;;;;;;;12.90;3.28;;;25.70;65.30;;;;;;5006541;28;20029;-69
2021/06/20 09:22:27;;;;;;;12.38;2.60;;;25.80;65.10;;;;;;5029146;28;20033;-68
2021/06/20 09:25:07;;;;;;;7.80;2.47;;;25.90;65.20;;;;;;4998570;28;20030;-69
2021/06/20 09:27:33;;;;;;;8.77;2.45;;;25.90;64.70;;;;;;5017763;28;20489;-69
2021/06/20 09:30:26;;;;;;;9.82;2.75;;;25.90;64.50;;;;;;5004600;28;20026;-68
2021/06/20 09:32:58;;;;;;;8.27;2.30;;;25.80;63.90;;;;;;5007855;28;20498;-68
2021/06/20 09:35:25;;;;;;;12.10;2.60;;;25.80;64.10;;;;;;5015092;28;20045;-68
2021/06/20 09:37:51;;;;;;;14.68;2.85;;;25.70;63.90;;;;;;5027179;28;20030;-69
2021/06/20 09:40:17;;;;;;;7.28;2.55;;;25.70;64.30;;;;;;5030187;28;20145;-69
2021/06/20 09:42:44;;;;;;;12.77;2.70;;;25.60;64.60;;;;;;5025907;28;20126;-69
2021/06/20 09:45:10;;;;;;;11.48;2.53;;;25.60;64.80;;;;;;5016995;28;20033;-69
2021/06/20 09:47:41;;;;;;;9.95;2.53;;;25.60;64.50;;;;;;5031270;28;20029;-69
2021/06/20 09:50:08;;;;;;;9.23;2.47;;;25.60;64.80;;;;;;5012775;28;20040;-69
2021/06/20 09:52:36;;;;;;;8.50;2.25;;;25.60;64.30;;;;;;5031844;28;20818;-69
2021/06/20 09:55:12;;;;;;;6.93;2.70;;;25.60;64.50;;;;;;5014724;28;20022;-69
2021/06/20 09:57:41;;;;;;;8.18;2.90;;;25.60;64.40;;;;;;4999437;28;20018;-68
2021/06/20 10:00:07;;;;;;;8.55;2.78;;;25.60;64.30;;;;;;5031617;28;20026;-69
2021/06/20 10:02:35;;;;;;;7.22;2.97;;;25.60;64.00;;;;;;5030199;28;20033;-69
2021/06/20 10:05:00;;;;;;;11.23;3.00;;;25.60;64.80;;;;;;5010136;28;20391;-69
2021/06/20 10:07:30;;;;;;;7.38;2.65;;;25.60;64.80;;;;;;5005392;28;20053;-69
2021/06/20 10:09:57;;;;;;;12.20;2.90;;;25.60;64.40;;;;;;5031891;28;20030;-69
2021/06/20 10:12:23;;;;;;;10.95;2.78;;;25.60;64.90;;;;;;5031751;28;20037;-69
2021/06/20 10:14:51;;;;;;;6.75;2.70;;;25.60;65.00;;;;;;5030069;28;20025;-69
2021/06/20 10:17:29;;;;;;;14.45;2.88;;;25.60;64.80;;;;;;5032220;28;20020;-69
2021/06/20 10:19:58;;;;;;;8.93;2.88;;;25.60;65.00;;;;;;5027555;28;20059;-69
2021/06/20 10:22:23;;;;;;;9.93;2.63;;;25.60;65.20;;;;;;5004634;28;20026;-68
2021/06/20 10:24:52;;;;;;;11.25;3.33;;;25.50;65.50;;;;;;5013367;28;20400;-68
2021/06/20 10:27:48;;;;;;;9.27;2.95;;;25.50;65.60;;;;;;5028271;28;20029;-69
2021/06/20 10:30:22;;;;;;;9.90;2.75;;;25.50;65.90;;;;;;5029970;28;20029;-71
2021/06/20 10:32:50;;;;;;;6.18;2.92;;;25.60;65.90;;;;;;5023609;28;20054;-70
2021/06/20 10:35:19;;;;;;;8.38;2.95;;;25.60;65.70;;;;;;5024420;28;20083;-70
2021/06/20 10:37:45;;;;;;;8.18;3.03;;;25.60;65.70;;;;;;4996856;28;20095;-70
2021/06/20 10:40:26;;;;;;;6.43;2.70;;;25.60;65.60;;;;;;5030481;28;20099;-69
2021/06/20 10:42:54;;;;;;;12.18;3.58;;;25.60;66.30;;;;;;5031022;28;20029;-70
2021/06/20 10:45:49;;;;;;;14.32;6.90;;;25.60;66.50;;;;;;5029800;28;20060;-70
2021/06/20 10:48:20;;;;;;;10.02;3.72;;;25.60;66.80;;;;;;4999904;28;20037;-70
2021/06/20 10:50:59;;;;;;;16.58;3.30;;;25.60;67.10;;;;;;5031633;28;20092;-70
2021/06/20 10:53:25;;;;;;;9.05;3.03;;;25.60;67.00;;;;;;5030438;28;20514;-69
2021/06/20 10:55:53;;;;;;;10.02;2.88;;;25.60;67.30;;;;;;5018313;28;20037;-69
2021/06/20 10:58:28;;;;;;;8.25;3.00;;;25.60;67.60;;;;;;5013667;28;20018;-69
2021/06/20 11:01:07;;;;;;;11.93;3.10;;;25.60;67.80;;;;;;5039458;28;20057;-69
2021/06/20 11:03:33;;;;;;;12.75;3.60;;;25.70;67.80;;;;;;5028781;28;20104;-69
2021/06/20 11:06:11;;;;;;;14.73;3.60;;;25.70;67.90;;;;;;5030919;28;20088;-69
2021/06/20 11:08:40;;;;;;;9.38;3.03;;;25.70;68.40;;;;;;5029924;28;20029;-69
2021/06/20 11:11:15;;;;;;;10.05;3.45;;;25.80;68.20;;;;;;5012101;28;20026;-69
2021/06/20 11:13:47;;;;;;;11.43;4.15;;;25.90;68.10;;;;;;5021551;28;20112;-69
2021/06/20 11:16:33;;;;;;;10.63;3.90;;;25.90;68.40;;;;;;5011991;28;20465;-69
2021/06/20 11:19:06;;;;;;;12.13;3.60;;;25.90;67.60;;;;;;5029832;28;20049;-69
2021/06/20 11:22:09;;;;;;;12.55;4.13;;;25.90;67.40;;;;;;5009005;28;20083;-69
2021/06/20 11:24:41;;;;;;;12.73;4.38;;;25.90;67.60;;;;;;4973894;28;20415;-69
2021/06/20 11:27:11;;;;;;;;;;;25.90;67.70;;;;;;5004743;28;20120;-69
2021/06/20 11:29:41;;;;;;;14.00;3.47;;;25.90;67.30;;;;;;5030587;28;19924;-70
2021/06/20 11:32:15;;;;;;;15.35;3.58;;;25.90;67.50;;;;;;5028955;28;20481;-70
2021/06/20 11:35:09;;;;;;;15.35;4.32;;;25.90;67.70;;;;;;5023925;28;20037;-70
2021/06/20 11:37:38;;;;;;;15.80;4.32;;;25.90;67.70;;;;;;5011346;28;20367;-72
2021/06/20 11:40:12;;;;;;;17.02;3.83;;;26.00;68.20;;;;;;5031238;28;20116;-69
2021/06/20 11:42:40;;;;;;;12.15;4.22;;;26.00;68.30;;;;;;5009585;28;20119;-68
2021/06/20 11:45:09;;;;;;;15.90;4.32;;;26.00;68.30;;;;;;5021652;28;20093;-68
2021/06/20 11:47:37;;;;;;;11.65;3.80;;;26.00;68.60;;;;;;5011856;28;20672;-74
2021/06/20 11:50:14;;;;;;;12.77;3.60;;;26.20;68.70;;;;;;5030961;28;20048;-74
2021/06/20 11:52:42;;;;;;;22.02;4.53;;;26.30;69.30;;;;;;5031031;28;20018;-68
2021/06/20 11:55:13;;;;;;;14.65;4.03;;;26.40;69.00;;;;;;5030215;28;20028;-74
2021/06/20 11:57:38;;;;;;;11.68;4.32;;;26.50;69.10;;;;;;5017364;28;20548;-68
2021/06/20 12:00:15;;;;;;;15.05;4.20;;;26.60;68.50;;;;;;5010985;28;20038;-68
2021/06/20 12:02:43;;;;;;;18.98;4.63;;;26.70;68.20;;;;;;5011443;28;20018;-68
2021/06/20 12:05:16;;;;;;;16.17;4.13;;;26.80;68.00;;;;;;5023382;28;20475;-68
2021/06/20 12:07:43;;;;;;;23.63;5.32;;;26.80;67.70;;;;;;5029520;28;20036;-70
2021/06/20 12:10:15;;;;;;;13.95;4.32;;;26.70;67.70;;;;;;5031130;28;20032;-68
2021/06/20 12:12:41;;;;;;;;;;;26.70;68.10;;;;;;5029268;28;20025;-68
2021/06/20 12:15:07;;;;;;;19.35;4.13;;;26.80;67.80;;;;;;5014098;28;20004;-68
2021/06/20 12:17:33;;;;;;;14.43;4.55;;;26.80;67.50;;;;;;5022906;28;20029;-68
2021/06/20 12:19:59;;;;;;;18.38;5.57;;;26.90;67.50;;;;;;5023059;28;20029;-68
2021/06/20 12:22:25;;;;;;;16.45;4.90;;;27.00;67.40;;;;;;5013103;28;20104;-68
2021/06/20 12:25:00;;;;;;;12.82;4.45;;;27.00;67.60;;;;;;5028773;28;20079;-68
2021/06/20 12:27:31;;;;;;;16.55;4.53;;;27.00;67.10;;;;;;5030471;28;20428;-68
2021/06/20 12:29:58;;;;;;;21.88;5.25;;;27.00;67.00;;;;;;5030906;28;20026;-69
2021/06/20 12:32:24;;;;;;;13.55;4.03;;;26.90;66.80;;;;;;5030406;28;20029;-66
2021/06/20 12:34:51;;;;;;;15.73;4.10;;;26.90;67.10;;;;;;5010838;28;20030;-66
2021/06/20 12:37:19;;;;;;;20.00;4.20;;;26.90;66.90;;;;;;5030605;28;20474;-66
2021/06/20 12:39:51;;;;;;;19.08;4.25;;;26.90;66.80;;;;;;5030529;28;20056;-70
2021/06/20 12:42:17;;;;;;;;;;;27.00;67.10;;;;;;5031092;28;20098;-66
2021/06/20 12:44:54;;;;;;;16.95;4.60;;;27.10;66.80;;;;;;5015331;28;20572;-68
2021/06/20 12:47:35;;;;;;;16.60;4.80;;;27.10;66.30;;;;;;5013510;28;20033;-66
2021/06/20 12:50:02;;;;;;;11.38;4.35;;;27.20;66.60;;;;;;5026615;28;20032;-66
2021/06/20 12:52:30;;;;;;;23.55;4.28;;;27.30;67.00;;;;;;5020111;28;20471;-66
2021/06/20 12:54:57;;;;;;;18.40;4.68;;;27.40;66.10;;;;;;5009054;28;20026;-67
2021/06/20 12:57:31;;;;;;;21.38;4.70;;;27.50;66.50;;;;;;5010321;28;20022;-67
2021/06/20 13:00:08;;;;;;;21.88;4.18;;;27.60;65.90;;;;;;4993503;28;20057;-69
2021/06/20 13:02:34;;;;;;;16.20;4.22;;;27.60;65.20;;;;;;5010962;28;20029;-66
2021/06/20 13:05:00;;;;;;;16.80;4.15;;;27.60;65.00;;;;;;5014800;28;20569;-66
2021/06/20 13:07:45;;;;;;;17.08;4.20;;;27.60;64.50;;;;;;5026909;28;20057;-69
2021/06/20 13:10:13;;;;;;;19.48;4.10;;;27.60;64.30;;;;;;4994267;28;20075;-66
2021/06/20 13:12:39;;;;;;;18.52;4.00;;;27.60;64.60;;;;;;5023105;28;20018;-65
2021/06/20 13:15:11;;;;;;;23.95;4.28;;;27.70;64.20;;;;;;5030103;28;20025;-66
2021/06/20 13:17:37;;;;;;;19.30;3.90;;;27.70;63.70;;;;;;5033810;28;20497;-66
2021/06/20 13:20:04;;;;;;;24.45;4.85;;;27.70;63.80;;;;;;5033853;28;20030;-67
2021/06/20 13:22:30;;;;;;;19.40;4.00;;;27.80;64.30;;;;;;5034182;28;20025;-69
2021/06/20 13:24:56;;;;;;;18.40;4.45;;;27.90;63.20;;;;;;5032024;28;20113;-70
2021/06/20 13:27:21;;;;;;;23.30;4.20;;;27.90;62.40;;;;;;5029227;28;20036;-66
2021/06/20 13:29:47;;;;;;;24.80;3.85;;;28.00;62.40;;;;;;5015467;28;20498;-68
2021/06/20 13:32:13;;;;;;;21.85;3.95;;;28.00;61.20;;;;;;5032408;28;20026;-68
2021/06/20 13:34:38;;;;;;;27.38;3.75;;;27.90;60.40;;;;;;5031913;28;20036;-72
2021/06/20 13:37:07;;;;;;;20.98;4.10;;;27.90;60.50;;;;;;5033918;28;20045;-67
2021/06/20 13:39:34;;;;;;;23.05;4.35;;;27.90;60.40;;;;;;5016167;28;20103;-69